sensor_id;sensor_type;location;lat;lon;timestamp;pressure;altitude;pressure_sealevel;temperature;humidity
46506;BME280;32220;49.808;9.968;2022-10-13T00:01:39;99346.25;;;12.44;71.53
46506;BME280;32220;49.808;9.968;2022-10-13T00:04:07;99403.06;;;12.84;71.86
46506;BME280;32220;49.808;9.968;2022-10-13T00:06:35;99393.66;;;12.78;72.03
46506;BME280;32220;49.808;9.968;2022-10-13T00:09:03;99402.88;;;12.87;71.94
46506;BME280;32220;49.808;9.968;2022-10-13T00:11:31;99404.56;;;12.88;71.63
46506;BME280;32220;49.808;9.968;2022-10-13T00:14:00;99390.84;;;12.81;71.81
46506;BME280;32220;49.808;9.968;2022-10-13T00:16:30;99395.84;;;12.86;72.75
46506;BME280;32220;49.808;9.968;2022-10-13T00:18:58;99394.34;;;12.82;72.93
46506;BME280;32220;49.808;9.968;2022-10-13T00:21:26;99402.91;;;12.73;73.34
46506;BME280;32220;49.808;9.968;2022-10-13T00:23:54;99398.03;;;12.65;73.47
46506;BME280;32220;49.808;9.968;2022-10-13T00:26:24;99402.91;;;12.58;73.43
46506;BME280;32220;49.808;9.968;2022-10-13T00:28:54;99400.69;;;12.51;73.23
46506;BME280;32220;49.808;9.968;2022-10-13T00:31:23;99398.25;;;12.48;73.82
46506;BME280;32220;49.808;9.968;2022-10-13T00:33:51;99397.66;;;12.43;73.44
46506;BME280;32220;49.808;9.968;2022-10-13T00:36:21;99401.53;;;12.37;73.40
46506;BME280;32220;49.808;9.968;2022-10-13T00:38:49;99380.50;;;12.20;73.07
46506;BME280;32220;49.808;9.968;2022-10-13T00:41:17;99401.56;;;12.23;73.19
46506;BME280;32220;49.808;9.968;2022-10-13T00:43:56;99380.47;;;12.06;73.30
46506;BME280;32220;49.808;9.968;2022-10-13T00:46:26;99387.56;;;12.05;73.22
46506;BME280;32220;49.808;9.968;2022-10-13T00:49:01;99400.94;;;12.04;73.22
46506;BME280;32220;49.808;9.968;2022-10-13T00:51:32;99403.03;;;11.99;73.00
46506;BME280;32220;49.808;9.968;2022-10-13T00:54:02;99396.28;;;11.93;73.09
46506;BME280;32220;49.808;9.968;2022-10-13T00:56:32;99403.56;;;11.90;72.78
46506;BME280;32220;49.808;9.968;2022-10-13T00:59:02;99401.84;;;11.88;72.92
46506;BME280;32220;49.808;9.968;2022-10-13T01:01:32;99380.13;;;11.82;72.67
46506;BME280;32220;49.808;9.968;2022-10-13T01:03:59;99397.13;;;11.94;72.47
46506;BME280;32220;49.808;9.968;2022-10-13T01:06:27;99384.78;;;11.93;72.57
46506;BME280;32220;49.808;9.968;2022-10-13T01:08:54;99380.25;;;11.95;72.86
46506;BME280;32220;49.808;9.968;2022-10-13T01:11:31;99373.41;;;11.91;73.17
46506;BME280;32220;49.808;9.968;2022-10-13T01:14:10;99381.28;;;11.92;73.50
46506;BME280;32220;49.808;9.968;2022-10-13T01:16:48;99377.88;;;11.90;73.67
46506;BME280;32220;49.808;9.968;2022-10-13T01:19:37;99335.22;;;11.63;73.67
46506;BME280;32220;49.808;9.968;2022-10-13T01:22:19;99375.28;;;11.88;73.38
46506;BME280;32220;49.808;9.968;2022-10-13T01:24:55;99386.84;;;11.87;73.16
46506;BME280;32220;49.808;9.968;2022-10-13T01:27:45;99375.59;;;11.84;73.16
46506;BME280;32220;49.808;9.968;2022-10-13T01:30:19;99372.09;;;11.83;73.02
46506;BME280;32220;49.808;9.968;2022-10-13T01:32:58;99350.88;;;11.68;73.13
46506;BME280;32220;49.808;9.968;2022-10-13T01:35:47;99378.72;;;11.75;72.97
46506;BME280;32220;49.808;9.968;2022-10-13T01:38:25;99371.06;;;11.70;73.11
46506;BME280;32220;49.808;9.968;2022-10-13T01:41:01;99361.16;;;11.58;73.19
46506;BME280;32220;49.808;9.968;2022-10-13T01:43:33;99365.53;;;11.59;73.10
46506;BME280;32220;49.808;9.968;2022-10-13T01:46:07;99373.84;;;11.53;73.14
46506;BME280;32220;49.808;9.968;2022-10-13T01:48:38;99362.75;;;11.46;73.15
46506;BME280;32220;49.808;9.968;2022-10-13T01:51:08;99368.38;;;11.40;73.20
46506;BME280;32220;49.808;9.968;2022-10-13T01:53:38;99352.53;;;11.25;72.70
46506;BME280;32220;49.808;9.968;2022-10-13T01:56:06;99361.06;;;11.30;72.97
46506;BME280;32220;49.808;9.968;2022-10-13T01:58:35;99363.13;;;11.25;72.78
46506;BME280;32220;49.808;9.968;2022-10-13T02:01:21;99370.47;;;11.20;72.75
46506;BME280;32220;49.808;9.968;2022-10-13T02:04:00;99336.63;;;10.93;72.78
46506;BME280;32220;49.808;9.968;2022-10-13T02:06:38;99359.19;;;11.00;72.56
46506;BME280;32220;49.808;9.968;2022-10-13T02:09:11;99348.44;;;10.88;72.60
46506;BME280;32220;49.808;9.968;2022-10-13T02:11:47;99354.56;;;10.88;72.82
46506;BME280;32220;49.808;9.968;2022-10-13T02:14:20;99367.25;;;10.99;72.90
46506;BME280;32220;49.808;9.968;2022-10-13T02:16:52;99359.19;;;11.00;73.37
46506;BME280;32220;49.808;9.968;2022-10-13T02:19:21;99344.66;;;10.92;73.02
46506;BME280;32220;49.808;9.968;2022-10-13T02:21:50;99364.16;;;11.06;73.09
46506;BME280;32220;49.808;9.968;2022-10-13T02:24:19;99359.47;;;11.11;73.05
46506;BME280;32220;49.808;9.968;2022-10-13T02:26:47;99364.41;;;11.18;72.76
46506;BME280;32220;49.808;9.968;2022-10-13T02:29:18;99370.22;;;11.24;72.95
46506;BME280;32220;49.808;9.968;2022-10-13T02:31:46;99364.81;;;11.26;72.76
46506;BME280;32220;49.808;9.968;2022-10-13T02:34:16;99361.22;;;11.27;73.25
46506;BME280;32220;49.808;9.968;2022-10-13T02:36:45;99363.63;;;11.31;72.69
46506;BME280;32220;49.808;9.968;2022-10-13T02:39:13;99361.66;;;11.35;72.77
46506;BME280;32220;49.808;9.968;2022-10-13T02:41:41;99373.03;;;11.37;72.81
46506;BME280;32220;49.808;9.968;2022-10-13T02:44:09;99370.19;;;11.40;72.68
46506;BME280;32220;49.808;9.968;2022-10-13T02:46:40;99381.41;;;11.45;72.79
46506;BME280;32220;49.808;9.968;2022-10-13T02:49:08;99368.91;;;11.47;72.77
46506;BME280;32220;49.808;9.968;2022-10-13T02:51:37;99367.03;;;11.49;72.44
46506;BME280;32220;49.808;9.968;2022-10-13T02:54:05;99370.25;;;11.54;72.79
46506;BME280;32220;49.808;9.968;2022-10-13T02:56:33;99356.91;;;11.56;72.72
46506;BME280;32220;49.808;9.968;2022-10-13T02:59:01;99358.53;;;11.58;72.62
46506;BME280;32220;49.808;9.968;2022-10-13T03:01:28;99354.84;;;11.61;72.51
46506;BME280;32220;49.808;9.968;2022-10-13T03:03:56;99357.38;;;11.62;72.48
46506;BME280;32220;49.808;9.968;2022-10-13T03:06:24;99355.50;;;11.64;72.48
46506;BME280;32220;49.808;9.968;2022-10-13T03:08:53;99352.75;;;11.66;72.75
46506;BME280;32220;49.808;9.968;2022-10-13T03:11:21;99327.81;;;11.54;72.67
46506;BME280;32220;49.808;9.968;2022-10-13T03:13:49;99349.84;;;11.70;73.00
46506;BME280;32220;49.808;9.968;2022-10-13T03:16:16;99347.94;;;11.72;72.69
46506;BME280;32220;49.808;9.968;2022-10-13T03:18:44;99346.06;;;11.74;72.64
46506;BME280;32220;49.808;9.968;2022-10-13T03:21:12;99345.91;;;11.77;72.51
46506;BME280;32220;49.808;9.968;2022-10-13T03:23:39;99342.28;;;11.78;72.89
46506;BME280;32220;49.808;9.968;2022-10-13T03:26:08;99321.59;;;11.69;72.90
46506;BME280;32220;49.808;9.968;2022-10-13T03:28:36;99332.81;;;11.74;72.94
46506;BME280;32220;49.808;9.968;2022-10-13T03:31:06;99306.97;;;11.62;73.26
46506;BME280;32220;49.808;9.968;2022-10-13T03:33:34;99343.84;;;11.82;73.66
46506;BME280;32220;49.808;9.968;2022-10-13T03:36:04;99309.63;;;11.62;73.82
46506;BME280;32220;49.808;9.968;2022-10-13T03:38:34;99319.88;;;11.68;73.79
46506;BME280;32220;49.808;9.968;2022-10-13T03:41:05;99316.28;;;11.69;73.74
46506;BME280;32220;49.808;9.968;2022-10-13T03:43:35;99310.22;;;11.67;73.66
46506;BME280;32220;49.808;9.968;2022-10-13T03:46:04;99321.59;;;11.69;73.89
46506;BME280;32220;49.808;9.968;2022-10-13T03:48:34;99328.44;;;11.73;73.99
46506;BME280;32220;49.808;9.968;2022-10-13T03:51:03;99325.00;;;11.71;74.07
46506;BME280;32220;49.808;9.968;2022-10-13T03:53:31;99321.41;;;11.72;74.07
46506;BME280;32220;49.808;9.968;2022-10-13T03:56:00;99322.53;;;11.68;74.16
46506;BME280;32220;49.808;9.968;2022-10-13T03:58:28;99330.31;;;11.71;73.99
46506;BME280;32220;49.808;9.968;2022-10-13T04:01:01;99307.19;;;11.59;73.82
46506;BME280;32220;49.808;9.968;2022-10-13T04:03:30;99319.88;;;11.68;73.71
46506;BME280;32220;49.808;9.968;2022-10-13T04:05:58;99325.78;;;11.73;73.93
46506;BME280;32220;49.808;9.968;2022-10-13T04:08:27;99320.47;;;11.73;74.87
46506;BME280;32220;49.808;9.968;2022-10-13T04:10:58;99325.88;;;11.72;74.65
46506;BME280;32220;49.808;9.968;2022-10-13T04:13:26;99319.88;;;11.68;75.02
46506;BME280;32220;49.808;9.968;2022-10-13T04:15:54;99316.56;;;11.65;75.25
46506;BME280;32220;49.808;9.968;2022-10-13T04:18:23;99316.63;;;11.63;74.96
46506;BME280;32220;49.808;9.968;2022-10-13T04:20:51;99321.22;;;11.61;74.68
46506;BME280;32220;49.808;9.968;2022-10-13T04:23:18;99300.72;;;11.49;74.96
46506;BME280;32220;49.808;9.968;2022-10-13T04:25:47;99319.66;;;11.57;75.15
46506;BME280;32220;49.808;9.968;2022-10-13T04:28:14;99317.19;;;11.54;75.09
46506;BME280;32220;49.808;9.968;2022-10-13T04:30:42;99303.72;;;11.43;75.12
46506;BME280;32220;49.808;9.968;2022-10-13T04:33:09;99311.13;;;11.52;74.91
46506;BME280;32220;49.808;9.968;2022-10-13T04:35:40;99310.34;;;11.50;74.71
46506;BME280;32220;49.808;9.968;2022-10-13T04:38:08;99292.41;;;11.39;74.50
46506;BME280;32220;49.808;9.968;2022-10-13T04:40:36;99317.56;;;11.48;74.79
46506;BME280;32220;49.808;9.968;2022-10-13T04:43:03;99309.69;;;11.46;74.58
46506;BME280;32220;49.808;9.968;2022-10-13T04:45:31;99299.25;;;11.43;74.80
46506;BME280;32220;49.808;9.968;2022-10-13T04:47:59;99308.84;;;11.46;75.20
46506;BME280;32220;49.808;9.968;2022-10-13T04:50:27;99302.84;;;11.42;74.90
46506;BME280;32220;49.808;9.968;2022-10-13T04:53:01;99312.06;;;11.51;75.54
46506;BME280;32220;49.808;9.968;2022-10-13T04:55:29;99293.28;;;11.40;75.47
46506;BME280;32220;49.808;9.968;2022-10-13T04:57:56;99320.59;;;11.56;75.86
46506;BME280;32220;49.808;9.968;2022-10-13T05:00:24;99326.59;;;11.60;75.64
46506;BME280;32220;49.808;9.968;2022-10-13T05:02:52;99308.47;;;11.52;75.43
46506;BME280;32220;49.808;9.968;2022-10-13T05:05:20;99321.94;;;11.63;75.62
46506;BME280;32220;49.808;9.968;2022-10-13T05:07:47;99306.50;;;11.56;75.59
46506;BME280;32220;49.808;9.968;2022-10-13T05:10:16;99327.84;;;11.68;76.00
46506;BME280;32220;49.808;9.968;2022-10-13T05:12:45;99329.56;;;11.69;76.08
46506;BME280;32220;49.808;9.968;2022-10-13T05:15:12;99332.03;;;11.72;75.91
46506;BME280;32220;49.808;9.968;2022-10-13T05:17:40;99312.09;;;11.65;75.99
46506;BME280;32220;49.808;9.968;2022-10-13T05:20:09;99329.97;;;11.77;75.91
46506;BME280;32220;49.808;9.968;2022-10-13T05:22:37;99327.06;;;11.82;75.83
46506;BME280;32220;49.808;9.968;2022-10-13T05:25:05;99327.72;;;11.85;75.77
46506;BME280;32220;49.808;9.968;2022-10-13T05:27:34;99261.78;;;11.49;75.76
46506;BME280;32220;49.808;9.968;2022-10-13T05:30:05;99307.72;;;11.80;76.02
46506;BME280;32220;49.808;9.968;2022-10-13T05:32:33;99326.22;;;11.96;75.94
46506;BME280;32220;49.808;9.968;2022-10-13T05:35:01;99334.84;;;11.99;76.07
46506;BME280;32220;49.808;9.968;2022-10-13T05:37:29;99327.16;;;11.95;76.46
46506;BME280;32220;49.808;9.968;2022-10-13T05:39:56;99308.31;;;11.85;76.25
46506;BME280;32220;49.808;9.968;2022-10-13T05:42:24;99336.19;;;12.06;76.28
46506;BME280;32220;49.808;9.968;2022-10-13T05:44:56;99335.16;;;12.09;76.10
46506;BME280;32220;49.808;9.968;2022-10-13T05:47:24;99337.50;;;12.13;76.11
46506;BME280;32220;49.808;9.968;2022-10-13T05:49:55;99339.91;;;12.18;76.23
46506;BME280;32220;49.808;9.968;2022-10-13T05:52:24;99324.31;;;12.12;76.23
46506;BME280;32220;49.808;9.968;2022-10-13T05:54:55;99333.16;;;12.27;76.33
46506;BME280;32220;49.808;9.968;2022-10-13T05:57:26;99336.41;;;12.32;76.11
46506;BME280;32220;49.808;9.968;2022-10-13T05:59:59;99338.66;;;12.38;76.03
46506;BME280;32220;49.808;9.968;2022-10-13T06:02:42;99334.09;;;12.40;76.07
46506;BME280;32220;49.808;9.968;2022-10-13T06:05:13;99339.81;;;12.48;75.90
46506;BME280;32220;49.808;9.968;2022-10-13T06:07:43;99342.25;;;12.51;75.90
46506;BME280;32220;49.808;9.968;2022-10-13T06:10:13;99341.69;;;12.60;75.49
46506;BME280;32220;49.808;9.968;2022-10-13T06:12:41;99323.28;;;12.57;75.31
46506;BME280;32220;49.808;9.968;2022-10-13T06:15:11;99298.69;;;12.53;75.39
46506;BME280;32220;49.808;9.968;2022-10-13T06:17:39;99333.97;;;12.84;75.26
46506;BME280;32220;49.808;9.968;2022-10-13T06:20:08;99309.09;;;12.85;75.10
46506;BME280;32220;49.808;9.968;2022-10-13T06:22:37;99320.41;;;13.01;75.00
46506;BME280;32220;49.808;9.968;2022-10-13T06:25:06;99319.09;;;13.08;75.42
46506;BME280;32220;49.808;9.968;2022-10-13T06:27:34;99319.38;;;13.18;75.20
46506;BME280;32220;49.808;9.968;2022-10-13T06:30:02;99319.69;;;13.26;75.47
46506;BME280;32220;49.808;9.968;2022-10-13T06:32:32;99328.91;;;13.35;75.37
46506;BME280;32220;49.808;9.968;2022-10-13T06:35:00;99323.59;;;13.35;75.21
46506;BME280;32220;49.808;9.968;2022-10-13T06:37:28;99329.13;;;13.44;75.20
46506;BME280;32220;49.808;9.968;2022-10-13T06:39:56;99326.38;;;13.46;75.09
46506;BME280;32220;49.808;9.968;2022-10-13T06:42:23;99325.47;;;13.59;75.06
46506;BME280;32220;49.808;9.968;2022-10-13T06:45:08;99323.63;;;13.60;75.18
46506;BME280;32220;49.808;9.968;2022-10-13T06:47:41;99328.53;;;13.66;75.11
46506;BME280;32220;49.808;9.968;2022-10-13T06:50:09;99332.47;;;13.73;75.16
46506;BME280;32220;49.808;9.968;2022-10-13T06:52:37;99327.72;;;13.78;75.21
46506;BME280;32220;49.808;9.968;2022-10-13T06:55:05;99315.56;;;13.74;74.84
46506;BME280;32220;49.808;9.968;2022-10-13T06:57:34;99328.56;;;13.91;74.95
46506;BME280;32220;49.808;9.968;2022-10-13T07:00:05;99318.25;;;13.99;74.75
46506;BME280;32220;49.808;9.968;2022-10-13T07:02:34;99326.34;;;14.11;74.56
46506;BME280;32220;49.808;9.968;2022-10-13T07:05:05;99311.75;;;14.16;74.48
46506;BME280;32220;49.808;9.968;2022-10-13T07:07:33;99289.19;;;14.09;74.11
46506;BME280;32220;49.808;9.968;2022-10-13T07:10:00;99300.44;;;14.25;74.14
46506;BME280;32220;49.808;9.968;2022-10-13T07:12:28;99314.59;;;14.38;73.82
46506;BME280;32220;49.808;9.968;2022-10-13T07:14:56;99311.09;;;14.38;74.11
46506;BME280;32220;49.808;9.968;2022-10-13T07:17:24;99316.78;;;14.46;73.76
46506;BME280;32220;49.808;9.968;2022-10-13T07:19:51;99321.66;;;14.52;73.41
46506;BME280;32220;49.808;9.968;2022-10-13T07:22:20;99327.28;;;14.60;73.37
46506;BME280;32220;49.808;9.968;2022-10-13T07:24:48;99318.44;;;14.60;73.10
46506;BME280;32220;49.808;9.968;2022-10-13T07:27:17;99330.03;;;14.71;72.81
46506;BME280;32220;49.808;9.968;2022-10-13T07:29:45;99330.34;;;14.80;72.69
46506;BME280;32220;49.808;9.968;2022-10-13T07:32:12;99331.91;;;14.95;72.42
46506;BME280;32220;49.808;9.968;2022-10-13T07:34:40;99316.75;;;14.95;72.21
46506;BME280;32220;49.808;9.968;2022-10-13T07:37:08;99336.41;;;15.18;71.90
46506;BME280;32220;49.808;9.968;2022-10-13T07:39:38;99316.88;;;15.18;71.87
46506;BME280;32220;49.808;9.968;2022-10-13T07:42:06;99333.44;;;15.34;71.71
46506;BME280;32220;49.808;9.968;2022-10-13T07:44:34;99336.78;;;15.49;71.60
46506;BME280;32220;49.808;9.968;2022-10-13T07:47:02;99319.38;;;15.56;71.07
46506;BME280;32220;49.808;9.968;2022-10-13T07:49:29;99300.03;;;15.52;71.34
46506;BME280;32220;49.808;9.968;2022-10-13T07:51:58;99323.44;;;15.72;70.68
46506;BME280;32220;49.808;9.968;2022-10-13T07:54:27;99320.78;;;15.84;70.68
46506;BME280;32220;49.808;9.968;2022-10-13T07:56:56;99317.31;;;15.94;70.43
46506;BME280;32220;49.808;9.968;2022-10-13T07:59:24;99294.06;;;15.84;70.22
46506;BME280;32220;49.808;9.968;2022-10-13T08:01:52;99319.38;;;16.02;69.63
46506;BME280;32220;49.808;9.968;2022-10-13T08:04:19;99324.84;;;16.00;69.90
46506;BME280;32220;49.808;9.968;2022-10-13T08:06:47;99316.59;;;16.03;70.05
46506;BME280;32220;49.808;9.968;2022-10-13T08:09:15;99312.97;;;16.04;69.81
46506;BME280;32220;49.808;9.968;2022-10-13T08:11:43;99311.25;;;16.03;70.12
46506;BME280;32220;49.808;9.968;2022-10-13T08:14:13;99310.28;;;16.04;69.97
46506;BME280;32220;49.808;9.968;2022-10-13T08:16:40;99322.56;;;16.07;69.70
46506;BME280;32220;49.808;9.968;2022-10-13T08:19:11;99315.03;;;16.12;70.05
46506;BME280;32220;49.808;9.968;2022-10-13T08:21:39;99308.94;;;16.21;69.44
46506;BME280;32220;49.808;9.968;2022-10-13T08:24:09;99315.53;;;16.28;69.01
46506;BME280;32220;49.808;9.968;2022-10-13T08:26:37;99321.22;;;16.46;68.89
46506;BME280;32220;49.808;9.968;2022-10-13T08:29:05;99317.75;;;16.68;68.73
46506;BME280;32220;49.808;9.968;2022-10-13T08:31:35;99314.94;;;16.92;67.83
46506;BME280;32220;49.808;9.968;2022-10-13T08:34:03;99266.56;;;16.72;67.03
46506;BME280;32220;49.808;9.968;2022-10-13T08:36:31;99321.22;;;17.02;66.65
46506;BME280;32220;49.808;9.968;2022-10-13T08:38:58;99315.03;;;17.01;66.41
46506;BME280;32220;49.808;9.968;2022-10-13T08:41:29;99307.13;;;17.00;66.04
46506;BME280;32220;49.808;9.968;2022-10-13T08:44:03;99305.63;;;17.18;66.04
46506;BME280;32220;49.808;9.968;2022-10-13T08:46:39;99311.13;;;17.37;65.98
46506;BME280;32220;49.808;9.968;2022-10-13T08:49:10;99316.59;;;17.79;64.76
46506;BME280;32220;49.808;9.968;2022-10-13T08:51:40;99312.88;;;18.21;63.91
46506;BME280;32220;49.808;9.968;2022-10-13T08:54:09;99316.50;;;18.62;62.41
46506;BME280;32220;49.808;9.968;2022-10-13T08:56:38;99310.31;;;18.71;61.79
46506;BME280;32220;49.808;9.968;2022-10-13T08:59:12;99289.09;;;18.58;61.63
46506;BME280;32220;49.808;9.968;2022-10-13T09:01:44;99301.00;;;18.65;61.94
46506;BME280;32220;49.808;9.968;2022-10-13T09:04:28;99307.22;;;18.66;61.30
46506;BME280;32220;49.808;9.968;2022-10-13T09:07:03;99304.69;;;18.74;61.46
46506;BME280;32220;49.808;9.968;2022-10-13T09:09:33;99307.66;;;18.81;60.93
46506;BME280;32220;49.808;9.968;2022-10-13T09:12:00;99300.50;;;18.91;60.99
46506;BME280;32220;49.808;9.968;2022-10-13T09:14:31;99292.88;;;19.06;61.14
46506;BME280;32220;49.808;9.968;2022-10-13T09:17:14;99293.78;;;19.25;60.12
46506;BME280;32220;49.808;9.968;2022-10-13T09:19:43;99303.66;;;19.34;59.86
46506;BME280;32220;49.808;9.968;2022-10-13T09:22:20;99287.03;;;19.50;59.18
46506;BME280;32220;49.808;9.968;2022-10-13T09:25:08;99292.38;;;19.69;58.64
46506;BME280;32220;49.808;9.968;2022-10-13T09:27:42;99298.56;;;19.99;57.93
46506;BME280;32220;49.808;9.968;2022-10-13T09:30:30;99301.03;;;20.29;57.32
46506;BME280;32220;49.808;9.968;2022-10-13T09:33:21;99304.94;;;20.54;57.05
46506;BME280;32220;49.808;9.968;2022-10-13T09:36:08;99316.63;;;20.72;56.38
46506;BME280;32220;49.808;9.968;2022-10-13T09:39:03;99319.31;;;20.72;56.52
46506;BME280;32220;49.808;9.968;2022-10-13T09:41:33;99324.53;;;20.74;55.49
46506;BME280;32220;49.808;9.968;2022-10-13T09:44:10;99316.75;;;20.71;56.12
46506;BME280;32220;49.808;9.968;2022-10-13T09:46:45;99305.47;;;21.12;55.63
46506;BME280;32220;49.808;9.968;2022-10-13T09:49:34;99316.38;;;21.56;54.11
46506;BME280;32220;49.808;9.968;2022-10-13T09:52:14;99314.31;;;21.50;53.93
46506;BME280;32220;49.808;9.968;2022-10-13T09:54:45;99320.47;;;21.42;54.06
46506;BME280;32220;49.808;9.968;2022-10-13T09:57:24;99321.59;;;21.40;53.69
46506;BME280;32220;49.808;9.968;2022-10-13T10:00:03;99313.16;;;21.35;54.24
46506;BME280;32220;49.808;9.968;2022-10-13T10:02:44;99318.41;;;21.36;54.00
46506;BME280;32220;49.808;9.968;2022-10-13T10:05:37;99322.00;;;21.45;53.43
46506;BME280;32220;49.808;9.968;2022-10-13T10:08:13;99320.00;;;21.47;53.77
46506;BME280;32220;49.808;9.968;2022-10-13T10:10:42;99316.44;;;21.29;53.61
46506;BME280;32220;49.808;9.968;2022-10-13T10:13:13;99301.19;;;21.20;53.86
46506;BME280;32220;49.808;9.968;2022-10-13T10:15:49;99308.47;;;21.37;53.59
46506;BME280;32220;49.808;9.968;2022-10-13T10:18:26;99294.88;;;21.64;53.21
46506;BME280;32220;49.808;9.968;2022-10-13T10:21:07;99296.84;;;21.98;52.88
46506;BME280;32220;49.808;9.968;2022-10-13T10:23:47;99296.97;;;22.40;52.13
46506;BME280;32220;49.808;9.968;2022-10-13T10:26:21;99309.94;;;22.96;50.15
46506;BME280;32220;49.808;9.968;2022-10-13T10:29:03;99310.69;;;23.31;49.11
46506;BME280;32220;49.808;9.968;2022-10-13T10:31:41;99307.72;;;23.66;49.07
46506;BME280;32220;49.808;9.968;2022-10-13T10:34:26;99307.56;;;23.92;48.38
46506;BME280;32220;49.808;9.968;2022-10-13T10:37:09;99314.16;;;24.06;47.22
46506;BME280;32220;49.808;9.968;2022-10-13T10:39:45;99298.28;;;23.94;46.51
46506;BME280;32220;49.808;9.968;2022-10-13T10:45:17;99310.28;;;23.84;47.64
46506;BME280;32220;49.808;9.968;2022-10-13T10:47:47;99315.53;;;23.61;47.81
46506;BME280;32220;49.808;9.968;2022-10-13T10:50:19;99286.06;;;23.42;48.74
46506;BME280;32220;49.808;9.968;2022-10-13T10:52:55;99310.38;;;23.42;47.83
46506;BME280;32220;49.808;9.968;2022-10-13T10:55:31;99299.19;;;23.28;48.67
46506;BME280;32220;49.808;9.968;2022-10-13T10:58:10;99290.94;;;23.30;48.56
46506;BME280;32220;49.808;9.968;2022-10-13T11:00:49;99280.94;;;23.14;48.47
46506;BME280;32220;49.808;9.968;2022-10-13T11:03:28;99289.06;;;23.31;48.61
46506;BME280;32220;49.808;9.968;2022-10-13T11:06:03;99284.72;;;23.46;48.46
46506;BME280;32220;49.808;9.968;2022-10-13T11:08:49;99284.75;;;23.70;47.47
46506;BME280;32220;49.808;9.968;2022-10-13T11:11:38;99282.34;;;23.99;47.11
46506;BME280;32220;49.808;9.968;2022-10-13T11:14:30;99300.28;;;24.25;45.88
46506;BME280;32220;49.808;9.968;2022-10-13T11:17:13;99288.09;;;24.29;45.47
46506;BME280;32220;49.808;9.968;2022-10-13T11:19:43;99273.03;;;24.34;46.10
46506;BME280;32220;49.808;9.968;2022-10-13T11:22:19;99276.59;;;24.35;45.87
46506;BME280;32220;49.808;9.968;2022-10-13T11:24:58;99272.72;;;24.29;45.88
46506;BME280;32220;49.808;9.968;2022-10-13T11:27:36;99277.78;;;24.16;45.95
46506;BME280;32220;49.808;9.968;2022-10-13T11:33:33;99263.78;;;23.56;46.81
46506;BME280;32220;49.808;9.968;2022-10-13T11:40:02;99262.53;;;23.26;47.09
46506;BME280;32220;49.808;9.968;2022-10-13T11:48:53;99245.09;;;22.96;47.53
46506;BME280;32220;49.808;9.968;2022-10-13T11:51:45;99220.75;;;22.80;48.86
46506;BME280;32220;49.808;9.968;2022-10-13T11:54:23;99223.28;;;22.89;49.30
46506;BME280;32220;49.808;9.968;2022-10-13T11:56:56;99208.63;;;22.84;48.73
46506;BME280;32220;49.808;9.968;2022-10-13T11:59:26;99215.38;;;22.96;48.76
46506;BME280;32220;49.808;9.968;2022-10-13T12:01:57;99215.06;;;22.99;48.73
46506;BME280;32220;49.808;9.968;2022-10-13T12:04:27;99198.66;;;23.01;49.17
46506;BME280;32220;49.808;9.968;2022-10-13T12:06:58;99199.88;;;22.98;49.52
46506;BME280;32220;49.808;9.968;2022-10-13T12:09:27;99207.94;;;22.90;48.63
46506;BME280;32220;49.808;9.968;2022-10-13T12:12:00;99183.25;;;22.77;48.62
46506;BME280;32220;49.808;9.968;2022-10-13T12:14:31;99189.47;;;22.69;48.36
46506;BME280;32220;49.808;9.968;2022-10-13T12:17:02;99194.53;;;22.72;48.15
46506;BME280;32220;49.808;9.968;2022-10-13T12:19:30;99189.34;;;22.79;48.09
46506;BME280;32220;49.808;9.968;2022-10-13T12:22:00;99176.19;;;22.84;48.42
46506;BME280;32220;49.808;9.968;2022-10-13T12:24:29;99173.84;;;23.05;49.12
46506;BME280;32220;49.808;9.968;2022-10-13T12:27:09;99189.75;;;23.16;47.60
46506;BME280;32220;49.808;9.968;2022-10-13T12:29:38;99187.72;;;23.18;47.24
46506;BME280;32220;49.808;9.968;2022-10-13T12:32:17;99183.00;;;23.37;47.45
46506;BME280;32220;49.808;9.968;2022-10-13T12:34:47;99171.00;;;23.39;47.53
46506;BME280;32220;49.808;9.968;2022-10-13T12:37:23;99181.66;;;23.33;47.47
46506;BME280;32220;49.808;9.968;2022-10-13T12:39:54;99160.84;;;23.01;48.04
46506;BME280;32220;49.808;9.968;2022-10-13T12:42:28;99178.06;;;22.91;48.24
46506;BME280;32220;49.808;9.968;2022-10-13T12:44:58;99163.34;;;22.78;48.57
46506;BME280;32220;49.808;9.968;2022-10-13T12:47:35;99171.41;;;22.70;48.80
46506;BME280;32220;49.808;9.968;2022-10-13T12:50:31;99165.72;;;22.39;49.17
46506;BME280;32220;49.808;9.968;2022-10-13T12:53:08;99170.53;;;22.11;50.18
46506;BME280;32220;49.808;9.968;2022-10-13T12:55:46;99147.69;;;21.71;50.16
46506;BME280;32220;49.808;9.968;2022-10-13T12:58:21;99153.88;;;21.64;50.89
46506;BME280;32220;49.808;9.968;2022-10-13T13:01:20;99143.31;;;21.70;51.78
46506;BME280;32220;49.808;9.968;2022-10-13T13:03:57;99133.50;;;21.61;51.19
46506;BME280;32220;49.808;9.968;2022-10-13T13:06:29;99148.59;;;21.54;51.11
46506;BME280;32220;49.808;9.968;2022-10-13T13:09:19;99132.94;;;21.32;52.38
46506;BME280;32220;49.808;9.968;2022-10-13T13:12:00;99127.69;;;21.30;52.89
46506;BME280;32220;49.808;9.968;2022-10-13T13:14:45;99129.44;;;21.39;53.45
46506;BME280;32220;49.808;9.968;2022-10-13T13:17:24;99126.41;;;21.34;53.50
46506;BME280;32220;49.808;9.968;2022-10-13T13:19:53;99122.97;;;21.24;53.85
46506;BME280;32220;49.808;9.968;2022-10-13T13:22:23;99125.34;;;21.09;54.50
46506;BME280;32220;49.808;9.968;2022-10-13T13:24:51;99115.41;;;20.92;54.44
46506;BME280;32220;49.808;9.968;2022-10-13T13:27:23;99121.03;;;20.81;55.10
46506;BME280;32220;49.808;9.968;2022-10-13T13:29:53;99120.56;;;20.68;55.39
46506;BME280;32220;49.808;9.968;2022-10-13T13:32:23;99085.53;;;20.32;55.36
46506;BME280;32220;49.808;9.968;2022-10-13T13:34:51;99107.88;;;20.42;56.18
46506;BME280;32220;49.808;9.968;2022-10-13T13:37:29;99090.84;;;20.24;56.64
46506;BME280;32220;49.808;9.968;2022-10-13T13:39:58;99109.66;;;20.24;57.29
46506;BME280;32220;49.808;9.968;2022-10-13T13:42:26;99095.31;;;20.06;57.36